createdAt,value
2018-03-17T00:00:08.776Z,1002.42
2018-03-17T00:01:08.774Z,1002.33
2018-03-17T00:02:08.748Z,1002.41
2018-03-17T00:03:08.731Z,1002.44
2018-03-17T00:04:08.720Z,1002.45
2018-03-17T00:05:08.704Z,1002.45
2018-03-17T00:06:08.734Z,1002.45
2018-03-17T00:07:08.676Z,1002.48
2018-03-17T00:08:08.668Z,1002.47
2018-03-17T00:09:08.648Z,1002.42
2018-03-17T00:10:08.640Z,1002.42
2018-03-17T00:11:08.827Z,1002.42
2018-03-17T00:12:08.611Z,1002.38
2018-03-17T00:13:08.599Z,1002.39
2018-03-17T00:14:08.586Z,1002.38
2018-03-17T00:15:08.567Z,1002.37
2018-03-17T00:16:08.556Z,1002.31
2018-03-17T00:17:08.558Z,1002.22
2018-03-17T00:18:08.532Z,1002.30
2018-03-17T00:19:08.514Z,1002.27
2018-03-17T00:20:08.506Z,1002.38
2018-03-17T00:21:08.488Z,1002.32
2018-03-17T00:22:08.474Z,1002.31
2018-03-17T00:23:08.464Z,1002.28
2018-03-17T00:24:08.450Z,1002.20
2018-03-17T00:25:08.437Z,1002.37
2018-03-17T00:26:08.419Z,1002.31
2018-03-17T00:27:08.407Z,1002.28
2018-03-17T00:28:08.392Z,1002.24
2018-03-17T00:29:08.384Z,1002.35
2018-03-17T00:30:08.388Z,1002.32
2018-03-17T00:31:08.354Z,1002.24
2018-03-17T00:32:08.338Z,1002.26
2018-03-17T00:33:08.327Z,1002.15
2018-03-17T00:34:08.310Z,1002.16
2018-03-17T00:35:08.296Z,1002.14
2018-03-17T00:36:08.283Z,1002.21
2018-03-17T00:37:08.291Z,1002.06
2018-03-17T00:38:08.254Z,1002.23
2018-03-17T00:39:08.245Z,1002.05
2018-03-17T00:40:08.280Z,1002.17
2018-03-17T00:41:08.213Z,1002.14
2018-03-17T00:42:08.201Z,1002.15
2018-03-17T00:43:08.187Z,1002.05
2018-03-17T00:44:08.177Z,1002.11
2018-03-17T00:45:08.159Z,1002.19
2018-03-17T00:46:08.149Z,1002.19
2018-03-17T00:47:08.133Z,1002.21
2018-03-17T00:48:08.118Z,1002.19
2018-03-17T00:49:08.104Z,1002.20
2018-03-17T00:50:08.092Z,1002.23
2018-03-17T00:51:08.081Z,1002.13
2018-03-17T00:52:08.077Z,1002.16
2018-03-17T00:53:08.063Z,1002.13
2018-03-17T00:54:08.042Z,1002.27
2018-03-17T00:55:08.029Z,1002.27
2018-03-17T00:56:08.019Z,1002.18
2018-03-17T00:57:07.995Z,1002.22
2018-03-17T00:58:08.016Z,1002.15
2018-03-17T00:59:07.969Z,1002.20
2018-03-17T01:00:07.956Z,1002.34
2018-03-17T01:01:07.940Z,1002.38
2018-03-17T01:02:07.927Z,1002.29
2018-03-17T01:03:07.917Z,1002.37
2018-03-17T01:04:07.899Z,1002.38
2018-03-17T01:05:07.888Z,1002.28
2018-03-17T01:06:07.875Z,1002.32
2018-03-17T01:07:07.858Z,1002.33
2018-03-17T01:08:07.857Z,1002.35
2018-03-17T01:09:07.836Z,1002.34
2018-03-17T01:10:07.816Z,1002.28
2018-03-17T01:11:07.802Z,1002.35
2018-03-17T01:12:07.792Z,1002.26
2018-03-17T01:13:07.773Z,1002.36
2018-03-17T01:14:07.759Z,1002.34
2018-03-17T01:15:07.755Z,1002.30
2018-03-17T01:16:07.731Z,1002.40
2018-03-17T01:17:07.716Z,1002.39
2018-03-17T01:18:07.702Z,1002.38
2018-03-17T01:19:07.689Z,1002.42
2018-03-17T01:20:07.679Z,1002.27
2018-03-17T01:21:07.662Z,1002.38
2018-03-17T01:22:07.650Z,1002.36
2018-03-17T01:23:07.643Z,1002.36
2018-03-17T01:24:07.624Z,1002.32
2018-03-17T01:25:07.608Z,1002.37
2018-03-17T01:26:07.598Z,1002.43
2018-03-17T01:27:07.580Z,1002.31
2018-03-17T01:28:07.571Z,1002.35
2018-03-17T01:29:07.560Z,1002.36
2018-03-17T01:30:07.538Z,1002.30
2018-03-17T01:31:07.537Z,1002.36
2018-03-17T01:32:07.522Z,1002.14
2018-03-17T01:33:07.498Z,1002.29
2018-03-17T01:34:07.477Z,1002.28
2018-03-17T01:35:07.467Z,1002.37
2018-03-17T01:36:07.453Z,1002.39
2018-03-17T01:37:07.455Z,1002.24
2018-03-17T01:38:07.422Z,1002.31
2018-03-17T01:39:07.408Z,1002.33
2018-03-17T01:40:07.399Z,1002.33
2018-03-17T01:41:07.379Z,1002.25
2018-03-17T01:42:07.373Z,1002.32
2018-03-17T01:43:07.365Z,1002.27
2018-03-17T01:44:07.336Z,1002.18
2018-03-17T01:45:07.322Z,1002.24
2018-03-17T01:46:07.307Z,1002.28
2018-03-17T01:47:07.292Z,1002.29
2018-03-17T01:48:07.279Z,1002.30
2018-03-17T01:49:07.273Z,1002.36
2018-03-17T01:50:07.253Z,1002.36
2018-03-17T01:51:07.237Z,1002.29
2018-03-17T01:52:07.234Z,1002.37
2018-03-17T01:53:07.220Z,1002.48
2018-03-17T01:54:07.192Z,1002.31
2018-03-17T01:55:07.179Z,1002.32
2018-03-17T01:56:07.168Z,1002.43
2018-03-17T01:57:07.170Z,1002.34
2018-03-17T01:58:07.151Z,1002.37
2018-03-17T01:59:07.121Z,1002.42
2018-03-17T02:00:07.107Z,1002.38
2018-03-17T02:01:07.092Z,1002.34
2018-03-17T02:02:07.088Z,1002.42
2018-03-17T02:03:07.077Z,1002.38
2018-03-17T02:04:07.048Z,1002.27
2018-03-17T02:05:07.037Z,1002.34
2018-03-17T02:06:07.020Z,1002.38
2018-03-17T02:07:07.006Z,1002.23
2018-03-17T02:08:06.995Z,1002.25
2018-03-17T02:09:06.976Z,1002.29
2018-03-17T02:10:06.962Z,1002.40
2018-03-17T02:11:06.965Z,1002.25
2018-03-17T02:12:06.937Z,1002.33
2018-03-17T02:13:06.918Z,1002.32
2018-03-17T02:14:06.916Z,1002.35
2018-03-17T02:15:06.888Z,1002.24
2018-03-17T02:16:06.875Z,1002.40
2018-03-17T02:17:06.861Z,1002.30
2018-03-17T02:18:06.863Z,1002.41
2018-03-17T02:19:06.845Z,1002.43
2018-03-17T02:20:06.835Z,1002.30
2018-03-17T02:21:06.804Z,1002.44
2018-03-17T02:22:06.793Z,1002.40
2018-03-17T02:23:06.796Z,1002.21
2018-03-17T02:24:06.758Z,1002.43
2018-03-17T02:25:06.741Z,1002.41
2018-03-17T02:26:06.735Z,1002.32
2018-03-17T02:27:06.737Z,1002.32
2018-03-17T02:28:06.702Z,1002.14
2018-03-17T02:29:06.682Z,1002.30
2018-03-17T02:30:06.681Z,1002.40
2018-03-17T02:31:06.654Z,1002.33
2018-03-17T02:32:06.644Z,1002.35
2018-03-17T02:33:06.625Z,1002.32
2018-03-17T02:34:06.622Z,1002.36
2018-03-17T02:35:06.600Z,1002.36
2018-03-17T02:36:06.585Z,1002.35
2018-03-17T02:37:06.569Z,1002.29
2018-03-17T02:38:06.551Z,1002.30
2018-03-17T02:39:06.555Z,1002.22
2018-03-17T02:40:06.525Z,1002.31
2018-03-17T02:41:06.518Z,1002.24
2018-03-17T02:42:06.493Z,1002.25
2018-03-17T02:43:06.494Z,1002.26
2018-03-17T02:44:06.484Z,1002.27
2018-03-17T02:45:06.453Z,1002.25
2018-03-17T02:46:06.435Z,1002.31
2018-03-17T02:47:06.419Z,1002.31
2018-03-17T02:48:06.406Z,1002.29
2018-03-17T02:49:06.391Z,1002.29
2018-03-17T02:50:06.388Z,1002.26
2018-03-17T02:51:06.374Z,1002.25
2018-03-17T02:52:06.347Z,1002.24
2018-03-17T02:53:06.332Z,1002.26
2018-03-17T02:54:06.318Z,1002.16
2018-03-17T02:55:06.301Z,1002.07
2018-03-17T02:56:06.299Z,1002.25
2018-03-17T02:57:06.276Z,1002.24
2018-03-17T02:58:06.256Z,1002.24
2018-03-17T02:59:06.245Z,1002.24
2018-03-17T03:00:06.228Z,1002.22
2018-03-17T03:01:06.222Z,1002.20
2018-03-17T03:02:06.215Z,1002.30
2018-03-17T03:03:06.190Z,1002.13
2018-03-17T03:04:06.171Z,1002.30
2018-03-17T03:05:06.162Z,1002.32
2018-03-17T03:06:06.144Z,1002.15
2018-03-17T03:07:06.123Z,1002.24
2018-03-17T03:08:06.119Z,1002.06
2018-03-17T03:09:06.101Z,1002.11
2018-03-17T03:10:06.080Z,1002.24
2018-03-17T03:11:06.065Z,1002.25
2018-03-17T03:12:06.055Z,1002.18
2018-03-17T03:13:06.039Z,1002.24
2018-03-17T03:14:06.038Z,1002.31
2018-03-17T03:15:06.012Z,1002.28
2018-03-17T03:16:05.993Z,1002.21
2018-03-17T03:17:05.981Z,1002.26
2018-03-17T03:18:05.965Z,1002.27
2018-03-17T03:19:05.961Z,1002.21
2018-03-17T03:20:05.945Z,1002.19
2018-03-17T03:21:05.918Z,1002.09
2018-03-17T03:22:05.903Z,1002.27
2018-03-17T03:23:05.903Z,1002.13
2018-03-17T03:24:05.871Z,1002.28
2018-03-17T03:25:05.872Z,1002.24
2018-03-17T03:26:05.841Z,1002.23
2018-03-17T03:27:05.838Z,1002.28
2018-03-17T03:28:05.815Z,1002.33
2018-03-17T03:29:05.798Z,1002.19
2018-03-17T03:30:05.794Z,1002.16
2018-03-17T03:31:05.782Z,1002.22
2018-03-17T03:32:05.758Z,1002.20
2018-03-17T03:33:05.739Z,1002.29
2018-03-17T03:34:05.728Z,1002.25
2018-03-17T03:35:05.712Z,1002.20
2018-03-17T03:36:05.691Z,1002.14
2018-03-17T03:37:05.680Z,1002.27
2018-03-17T03:38:05.677Z,1002.24
2018-03-17T03:39:05.653Z,1002.33
2018-03-17T03:40:05.638Z,1002.10
2018-03-17T03:41:05.621Z,1002.29
2018-03-17T03:42:05.602Z,1002.21
2018-03-17T03:43:05.587Z,1002.20
2018-03-17T03:44:05.573Z,1002.19
2018-03-17T03:45:05.561Z,1002.26
2018-03-17T03:46:05.541Z,1002.29
2018-03-17T03:47:05.526Z,1002.26
2018-03-17T03:48:05.521Z,1002.22
2018-03-17T03:49:05.501Z,1002.16
2018-03-17T03:50:05.485Z,1002.20
2018-03-17T03:51:05.472Z,1002.20
2018-03-17T03:52:05.456Z,1002.29
2018-03-17T03:53:05.441Z,1002.26
2018-03-17T03:54:05.427Z,1002.21
2018-03-17T03:55:05.409Z,1002.22
2018-03-17T03:56:05.413Z,1002.17
2018-03-17T03:57:05.397Z,1002.09
2018-03-17T03:58:05.364Z,1002.14
2018-03-17T03:59:05.351Z,1002.16
2018-03-17T04:00:05.334Z,1002.02
2018-03-17T04:01:05.320Z,1002.28
2018-03-17T04:02:05.306Z,1002.06
2018-03-17T04:03:05.297Z,1002.23
2018-03-17T04:04:05.294Z,1002.29
2018-03-17T04:05:05.257Z,1002.15
2018-03-17T04:06:05.246Z,1002.28
2018-03-17T04:07:05.228Z,1002.20
2018-03-17T04:08:05.222Z,1002.16
2018-03-17T04:09:05.197Z,1002.24
2018-03-17T04:10:05.183Z,1002.27
2018-03-17T04:11:05.424Z,1002.24
2018-03-17T04:12:05.156Z,1002.18
2018-03-17T04:13:05.141Z,1002.17
2018-03-17T04:14:05.123Z,1002.09
2018-03-17T04:15:05.110Z,1002.07
2018-03-17T04:16:05.102Z,1002.16
2018-03-17T04:17:05.076Z,1002.21
2018-03-17T04:18:05.065Z,1002.19
2018-03-17T04:19:05.058Z,1002.14
2018-03-17T04:20:05.037Z,1002.11
2018-03-17T04:21:05.019Z,1002.16
2018-03-17T04:22:05.005Z,1002.16
2018-03-17T04:23:04.985Z,1002.21
2018-03-17T04:24:04.975Z,1002.21
2018-03-17T04:25:04.959Z,1002.19
2018-03-17T04:26:04.941Z,1002.21
2018-03-17T04:27:04.929Z,1002.18
2018-03-17T04:28:04.914Z,1002.14
2018-03-17T04:29:04.894Z,1002.15
2018-03-17T04:30:04.884Z,1002.21
2018-03-17T04:31:04.871Z,1002.26
2018-03-17T04:32:04.854Z,1002.26
2018-03-17T04:33:04.834Z,1002.20
2018-03-17T04:34:04.818Z,1002.20
2018-03-17T04:35:04.808Z,1002.27
2018-03-17T04:36:04.794Z,1002.21
2018-03-17T04:37:04.772Z,1002.17
2018-03-17T04:38:04.758Z,1002.20
2018-03-17T04:39:04.748Z,1002.26
2018-03-17T04:40:04.728Z,1002.25
2018-03-17T04:41:04.712Z,1002.10
2018-03-17T04:42:04.698Z,1002.25
2018-03-17T04:43:04.684Z,1002.27
2018-03-17T04:44:04.667Z,1002.29
2018-03-17T04:45:04.656Z,1002.27
2018-03-17T04:46:04.641Z,1002.34
2018-03-17T04:47:04.621Z,1002.24
2018-03-17T04:48:04.612Z,1002.34
2018-03-17T04:49:04.596Z,1002.34
2018-03-17T04:50:04.576Z,1002.34
2018-03-17T04:51:04.562Z,1002.31
2018-03-17T04:52:04.549Z,1002.30
2018-03-17T04:53:04.530Z,1002.33
2018-03-17T04:54:04.514Z,1002.30
2018-03-17T04:55:04.509Z,1002.27
2018-03-17T04:56:04.489Z,1002.30
2018-03-17T04:57:04.474Z,1002.26
2018-03-17T04:58:04.459Z,1002.28
2018-03-17T04:59:04.444Z,1002.29
2018-03-17T05:00:04.440Z,1002.26
2018-03-17T05:01:04.410Z,1002.34
2018-03-17T05:02:04.400Z,1002.34
2018-03-17T05:03:04.384Z,1002.31
2018-03-17T05:04:04.370Z,1002.23
2018-03-17T05:05:04.356Z,1002.34
2018-03-17T05:06:04.352Z,1002.28
2018-03-17T05:07:04.319Z,1002.34
2018-03-17T05:08:04.311Z,1002.38
2018-03-17T05:09:04.299Z,1002.36
2018-03-17T05:10:04.273Z,1002.33
2018-03-17T05:11:04.261Z,1002.30
2018-03-17T05:12:04.242Z,1002.32
2018-03-17T05:13:04.232Z,1002.20
2018-03-17T05:14:04.212Z,1002.33
2018-03-17T05:15:04.200Z,1002.33
2018-03-17T05:16:04.189Z,1002.47
2018-03-17T05:17:04.165Z,1002.40
2018-03-17T05:18:04.154Z,1002.39
2018-03-17T05:19:04.135Z,1002.49
2018-03-17T05:20:04.120Z,1002.53
2018-03-17T05:21:04.104Z,1002.30
2018-03-17T05:22:04.092Z,1002.39
2018-03-17T05:23:04.073Z,1002.40
2018-03-17T05:24:04.062Z,1002.36
2018-03-17T05:25:04.042Z,1002.36
2018-03-17T05:26:04.027Z,1002.33
2018-03-17T05:27:04.012Z,1002.43
2018-03-17T05:28:04.000Z,1002.28
2018-03-17T05:29:03.984Z,1002.35
2018-03-17T05:30:03.964Z,1002.37
2018-03-17T05:31:03.950Z,1002.29
2018-03-17T05:32:03.938Z,1002.29
2018-03-17T05:33:03.919Z,1002.27
2018-03-17T05:34:03.907Z,1002.22
2018-03-17T05:35:03.888Z,1002.28
2018-03-17T05:36:03.876Z,1002.27
2018-03-17T05:37:03.857Z,1002.29
2018-03-17T05:38:03.841Z,1002.26
2018-03-17T05:39:03.829Z,1002.29
2018-03-17T05:40:03.811Z,1002.30
2018-03-17T05:41:03.798Z,1002.20
2018-03-17T05:42:03.782Z,1002.33
2018-03-17T05:43:03.767Z,1002.25
2018-03-17T05:44:03.750Z,1002.22
2018-03-17T05:45:03.738Z,1002.23
2018-03-17T05:46:03.720Z,1002.30
2018-03-17T05:47:03.704Z,1002.06
2018-03-17T05:48:03.686Z,1002.19
2018-03-17T05:49:03.673Z,1002.26
2018-03-17T05:50:03.654Z,1002.27
2018-03-17T05:51:03.640Z,1002.28
2018-03-17T05:52:03.625Z,1002.31
2018-03-17T05:53:03.607Z,1002.12
2018-03-17T05:54:03.592Z,1002.28
2018-03-17T05:55:03.582Z,1002.28
2018-03-17T05:56:03.565Z,1002.18
2018-03-17T05:57:03.548Z,1002.27
2018-03-17T05:58:03.533Z,1002.25
2018-03-17T05:59:03.519Z,1002.30
2018-03-17T06:00:03.498Z,1002.19
2018-03-17T06:01:03.483Z,1001.96
2018-03-17T06:02:03.468Z,1002.16
2018-03-17T06:03:03.452Z,1002.17
2018-03-17T06:04:03.440Z,1002.14
2018-03-17T06:05:03.425Z,1002.19
2018-03-17T06:06:03.411Z,1002.04
2018-03-17T06:07:03.395Z,1002.26
2018-03-17T06:08:03.378Z,1002.22
2018-03-17T06:09:03.362Z,1002.32
2018-03-17T06:10:03.362Z,1002.23
2018-03-17T06:11:03.330Z,1002.22
2018-03-17T06:12:03.311Z,1002.27
2018-03-17T06:13:03.294Z,1002.25
2018-03-17T06:14:03.322Z,1002.34
2018-03-17T06:15:03.265Z,1002.23
2018-03-17T06:16:03.251Z,1002.29
2018-03-17T06:17:03.233Z,1002.30
2018-03-17T06:18:03.219Z,1002.18
2018-03-17T06:19:03.202Z,1002.25
2018-03-17T06:20:03.186Z,1002.25
2018-03-17T06:21:03.171Z,1002.26
2018-03-17T06:22:03.155Z,1002.21
2018-03-17T06:23:03.143Z,1002.26
2018-03-17T06:24:03.123Z,1002.25
2018-03-17T06:25:03.112Z,1002.24
2018-03-17T06:26:03.091Z,1002.33
2018-03-17T06:27:03.075Z,1002.30
2018-03-17T06:28:03.068Z,1002.30
2018-03-17T06:29:03.044Z,1002.33
2018-03-17T06:30:03.032Z,1002.38
2018-03-17T06:31:03.012Z,1002.36
2018-03-17T06:32:03.004Z,1002.36
2018-03-17T06:33:02.983Z,1002.12
2018-03-17T06:34:02.969Z,1002.40
2018-03-17T06:35:02.961Z,1002.32
2018-03-17T06:36:02.935Z,1002.46
2018-03-17T06:37:02.918Z,1002.32
2018-03-17T06:38:02.904Z,1002.30
2018-03-17T06:39:02.892Z,1002.34
2018-03-17T06:40:02.879Z,1002.34
2018-03-17T06:41:02.857Z,1002.39
2018-03-17T06:42:02.839Z,1002.35
2018-03-17T06:43:02.841Z,1002.38
2018-03-17T06:44:02.808Z,1002.20
2018-03-17T06:45:02.792Z,1002.29
2018-03-17T06:46:02.776Z,1002.26
2018-03-17T06:47:02.861Z,1002.27
2018-03-17T06:48:02.749Z,1002.14
2018-03-17T06:49:02.732Z,1002.25
2018-03-17T06:50:02.713Z,1002.24
2018-03-17T06:51:02.698Z,1002.16
2018-03-17T06:52:02.692Z,1002.19
2018-03-17T06:53:02.666Z,1002.23
2018-03-17T06:54:02.651Z,1002.19
2018-03-17T06:55:02.641Z,1002.33
2018-03-17T06:56:02.619Z,1002.25
2018-03-17T06:57:02.601Z,1002.34
2018-03-17T06:58:02.587Z,1002.28
2018-03-17T06:59:02.572Z,1002.41
2018-03-17T07:00:02.564Z,1002.38
2018-03-17T07:01:02.543Z,1002.39
2018-03-17T07:02:02.543Z,1002.42
2018-03-17T07:03:02.509Z,1002.46
2018-03-17T07:04:02.498Z,1002.43
2018-03-17T07:05:02.478Z,1002.23
2018-03-17T07:06:02.475Z,1002.53
2018-03-17T07:07:02.539Z,1002.49
2018-03-17T07:08:02.432Z,1002.52
2018-03-17T07:09:02.419Z,1002.58
2018-03-17T07:10:02.415Z,1002.43
2018-03-17T07:11:02.391Z,1002.47
2018-03-17T07:12:02.368Z,1002.50
2018-03-17T07:13:02.351Z,1002.42
2018-03-17T07:14:02.339Z,1002.54
2018-03-17T07:15:02.321Z,1002.63
2018-03-17T07:16:02.310Z,1002.43
2018-03-17T07:17:02.291Z,1002.57
2018-03-17T07:18:02.277Z,1002.70
2018-03-17T07:19:02.259Z,1002.65
2018-03-17T07:20:02.253Z,1002.62
2018-03-17T07:21:02.226Z,1002.65
2018-03-17T07:22:02.211Z,1002.68
2018-03-17T07:23:02.199Z,1002.57
2018-03-17T07:24:02.182Z,1002.66
2018-03-17T07:25:02.178Z,1002.63
2018-03-17T07:26:02.148Z,1002.58
2018-03-17T07:27:02.140Z,1002.56
2018-03-17T07:28:02.122Z,1002.60
2018-03-17T07:29:02.110Z,1002.58
2018-03-17T07:30:02.087Z,1002.67
2018-03-17T07:31:02.070Z,1002.53
2018-03-17T07:32:02.056Z,1002.61
2018-03-17T07:33:02.040Z,1002.61
2018-03-17T07:34:02.024Z,1002.54
2018-03-17T07:35:02.011Z,1002.57
2018-03-17T07:36:01.993Z,1002.69
2018-03-17T07:37:01.976Z,1002.42
2018-03-17T07:38:01.964Z,1002.52
2018-03-17T07:39:01.945Z,1002.55
2018-03-17T07:40:01.932Z,1002.46
2018-03-17T07:41:01.913Z,1002.47
2018-03-17T07:42:01.901Z,1002.61
2018-03-17T07:43:01.883Z,1002.56
2018-03-17T07:44:01.871Z,1002.60
2018-03-17T07:45:01.851Z,1002.53
2018-03-17T07:46:01.840Z,1002.57
2018-03-17T07:47:01.825Z,1002.53
2018-03-17T07:48:01.808Z,1002.54
2018-03-17T07:49:01.789Z,1002.54
2018-03-17T07:50:01.774Z,1002.54
2018-03-17T07:51:01.757Z,1002.51
2018-03-17T07:52:01.742Z,1002.59
2018-03-17T07:53:01.727Z,1002.61
2018-03-17T07:54:01.712Z,1002.58
2018-03-17T07:55:01.695Z,1002.56
2018-03-17T07:56:01.683Z,1002.54
2018-03-17T07:57:01.664Z,1002.60
2018-03-17T07:58:01.648Z,1002.62
2018-03-17T07:59:01.642Z,1002.46
2018-03-17T08:00:01.623Z,1002.65
2018-03-17T08:01:01.609Z,1002.54
2018-03-17T08:02:01.592Z,1002.63
2018-03-17T08:03:01.571Z,1002.58
2018-03-17T08:04:01.560Z,1002.59
2018-03-17T08:05:01.544Z,1002.63
2018-03-17T08:06:01.542Z,1002.63
2018-03-17T08:07:01.509Z,1002.56
2018-03-17T08:08:01.499Z,1002.51
2018-03-17T08:09:01.480Z,1002.54
2018-03-17T08:10:01.467Z,1002.68
2018-03-17T08:11:01.451Z,1002.69
2018-03-17T08:12:01.432Z,1002.65
2018-03-17T08:13:01.417Z,1002.65
2018-03-17T08:14:01.400Z,1002.68
2018-03-17T08:15:01.389Z,1002.62
2018-03-17T08:16:01.374Z,1002.68
2018-03-17T08:17:01.355Z,1002.60
2018-03-17T08:18:01.342Z,1002.60
2018-03-17T08:19:01.327Z,1002.61
2018-03-17T08:20:01.307Z,1002.51
2018-03-17T08:21:01.294Z,1002.65
2018-03-17T08:22:01.280Z,1002.47
2018-03-17T08:23:01.260Z,1002.45
2018-03-17T08:24:01.244Z,1002.33
2018-03-17T08:25:01.234Z,1002.58
2018-03-17T08:26:01.214Z,1002.54
2018-03-17T08:27:01.203Z,1002.55
2018-03-17T08:28:01.182Z,1002.51
2018-03-17T08:29:01.170Z,1002.66
2018-03-17T08:30:01.156Z,1002.55
2018-03-17T08:31:01.140Z,1002.57
2018-03-17T08:32:01.121Z,1002.51
2018-03-17T08:33:01.105Z,1002.58
2018-03-17T08:34:01.089Z,1002.53
2018-03-17T08:35:01.074Z,1002.55
2018-03-17T08:36:01.062Z,1002.61
2018-03-17T08:37:01.049Z,1002.60
2018-03-17T08:38:01.031Z,1002.48
2018-03-17T08:39:01.018Z,1002.48
2018-03-17T08:40:01.002Z,1002.59
2018-03-17T08:41:00.984Z,1002.65
2018-03-17T08:42:00.968Z,1002.66
2018-03-17T08:43:00.954Z,1002.55
2018-03-17T08:44:00.935Z,1002.70
2018-03-17T08:45:00.922Z,1002.55
2018-03-17T08:46:00.906Z,1002.63
2018-03-17T08:47:00.887Z,1002.55
2018-03-17T08:48:00.876Z,1002.62
2018-03-17T08:49:00.861Z,1002.53
2018-03-17T08:50:00.840Z,1002.53
2018-03-17T08:51:00.829Z,1002.56
2018-03-17T08:52:00.811Z,1002.50
2018-03-17T08:53:00.846Z,1002.44
2018-03-17T08:54:00.780Z,1002.54
2018-03-17T08:55:00.797Z,1002.45
2018-03-17T08:56:00.750Z,1002.45
2018-03-17T08:57:00.734Z,1002.32
2018-03-17T08:58:00.763Z,1002.43
2018-03-17T08:59:00.704Z,1002.45
2018-03-17T09:00:00.689Z,1002.48
2018-03-17T09:01:00.673Z,1002.44
2018-03-17T09:02:00.657Z,1002.54
2018-03-17T09:03:00.645Z,1002.50
2018-03-17T09:04:00.631Z,1002.56
2018-03-17T09:05:00.614Z,1002.39
2018-03-17T09:06:00.608Z,1002.43
2018-03-17T09:07:00.581Z,1002.63
2018-03-17T09:08:00.566Z,1002.48
2018-03-17T09:09:00.557Z,1002.53
2018-03-17T09:10:00.550Z,1002.56
2018-03-17T09:11:00.521Z,1002.42
2018-03-17T09:12:00.505Z,1002.39
2018-03-17T09:13:00.489Z,1002.53
2018-03-17T09:14:00.475Z,1002.57
2018-03-17T09:15:00.464Z,1002.51
2018-03-17T09:16:00.447Z,1002.54
2018-03-17T09:17:00.429Z,1002.44
2018-03-17T09:18:00.446Z,1002.62
2018-03-17T09:19:00.408Z,1002.70
2018-03-17T09:20:00.388Z,1002.43
2018-03-17T09:21:00.369Z,1002.44
2018-03-17T09:22:00.355Z,1002.55
2018-03-17T09:23:00.345Z,1002.51
2018-03-17T09:24:00.324Z,1002.51
2018-03-17T09:25:00.307Z,1002.42
2018-03-17T09:26:00.296Z,1002.58
2018-03-17T09:27:00.282Z,1002.45
2018-03-17T09:28:00.267Z,1002.45
2018-03-17T09:29:00.250Z,1002.52
2018-03-17T09:30:00.236Z,1002.48
2018-03-17T09:31:00.221Z,1002.24
2018-03-17T09:32:00.202Z,1002.35
2018-03-17T09:33:00.187Z,1002.46
2018-03-17T09:34:00.171Z,1002.25
2018-03-17T09:35:00.155Z,1002.47
2018-03-17T09:36:00.145Z,1002.41
2018-03-17T09:37:00.125Z,1002.46
2018-03-17T09:38:00.110Z,1002.44
2018-03-17T09:39:00.096Z,1002.38
2018-03-17T09:40:00.081Z,1002.32
2018-03-17T09:41:00.065Z,1002.38
2018-03-17T09:42:00.052Z,1002.42
2018-03-17T09:43:00.038Z,1002.47
2018-03-17T09:44:00.037Z,1002.42
2018-03-17T09:45:00.005Z,1002.54
2018-03-17T09:45:59.994Z,1002.41
2018-03-17T09:46:59.978Z,1002.50
2018-03-17T09:47:59.962Z,1002.40
2018-03-17T09:48:59.944Z,1002.49
2018-03-17T09:49:59.931Z,1002.50
2018-03-17T09:50:59.918Z,1002.47
2018-03-17T09:51:59.901Z,1002.43
2018-03-17T09:52:59.888Z,1002.42
2018-03-17T09:53:59.874Z,1002.51
2018-03-17T09:54:59.856Z,1002.42
2018-03-17T09:55:59.841Z,1002.50
2018-03-17T09:56:59.830Z,1002.49
2018-03-17T09:57:59.812Z,1002.47
2018-03-17T09:58:59.796Z,1002.51
2018-03-17T09:59:59.780Z,1002.52
2018-03-17T10:00:59.768Z,1002.51
2018-03-17T10:01:59.755Z,1002.36
2018-03-17T10:02:59.740Z,1002.27
2018-03-17T10:03:59.722Z,1002.08
2018-03-17T10:04:59.856Z,1002.50
2018-03-17T10:05:59.695Z,1002.44
2018-03-17T10:06:59.676Z,1002.20
2018-03-17T10:07:59.673Z,1002.44
2018-03-17T10:08:59.646Z,1002.44
2018-03-17T10:09:59.635Z,1002.51
2018-03-17T10:10:59.623Z,1002.37
2018-03-17T10:11:59.614Z,1002.18
2018-03-17T10:12:59.587Z,1002.37
2018-03-17T10:13:59.571Z,1002.43
2018-03-17T10:14:59.558Z,1002.48
2018-03-17T10:15:59.543Z,1002.38
2018-03-17T10:16:59.527Z,1002.41
2018-03-17T10:17:59.516Z,1002.48
2018-03-17T10:18:59.504Z,1002.29
2018-03-17T10:19:59.483Z,1002.44
2018-03-17T10:20:59.473Z,1002.22
2018-03-17T10:21:59.456Z,1002.34
2018-03-17T10:22:59.441Z,1002.42
2018-03-17T10:23:59.428Z,1002.36
2018-03-17T10:24:59.413Z,1002.53
2018-03-17T10:25:59.398Z,1002.38
2018-03-17T10:26:59.384Z,1002.36
2018-03-17T10:27:59.369Z,1002.34
2018-03-17T10:28:59.350Z,1002.40
2018-03-17T10:29:59.336Z,1002.29
2018-03-17T10:30:59.326Z,1002.21
2018-03-17T10:31:59.315Z,1002.33
2018-03-17T10:32:59.290Z,1002.44
2018-03-17T10:33:59.276Z,1002.27
2018-03-17T10:34:59.260Z,1002.22
2018-03-17T10:35:59.313Z,1002.39
2018-03-17T10:36:59.231Z,1002.12
2018-03-17T10:37:59.214Z,1002.36
2018-03-17T10:38:59.200Z,1002.16
2018-03-17T10:39:59.190Z,1002.36
2018-03-17T10:40:59.171Z,1002.37
2018-03-17T10:41:59.159Z,1002.27
2018-03-17T10:42:59.144Z,1002.33
2018-03-17T10:43:59.127Z,1002.32
2018-03-17T10:44:59.111Z,1002.33
2018-03-17T10:45:59.096Z,1002.31
2018-03-17T10:46:59.085Z,1002.30
2018-03-17T10:47:59.066Z,1002.37
2018-03-17T10:48:59.050Z,1002.38
2018-03-17T10:49:59.037Z,1002.44
2018-03-17T10:50:59.025Z,1002.26
2018-03-17T10:51:59.016Z,1002.46
2018-03-17T10:52:58.991Z,1002.34
2018-03-17T10:53:58.980Z,1002.40
2018-03-17T10:54:58.965Z,1002.45
2018-03-17T10:55:58.948Z,1002.42
2018-03-17T10:56:58.932Z,1002.47
2018-03-17T10:57:58.916Z,1002.33
2018-03-17T10:58:58.907Z,1002.25
2018-03-17T10:59:58.887Z,1002.34
2018-03-17T11:00:58.871Z,1002.10
2018-03-17T11:01:58.858Z,1002.33
2018-03-17T11:02:58.842Z,1002.29
2018-03-17T11:03:58.837Z,1002.43
2018-03-17T11:04:58.813Z,1002.32
2018-03-17T11:05:58.850Z,1002.32
2018-03-17T11:06:58.784Z,1002.37
2018-03-17T11:07:58.769Z,1002.36
2018-03-17T11:08:58.754Z,1002.33
2018-03-17T11:09:58.740Z,1002.18
2018-03-17T11:10:58.737Z,1002.37
2018-03-17T11:11:58.710Z,1002.29
2018-03-17T11:12:58.694Z,1002.05
2018-03-17T11:13:58.680Z,1002.32
2018-03-17T11:14:58.685Z,1002.32
2018-03-17T11:15:58.650Z,1002.43
2018-03-17T11:16:58.638Z,1002.33
2018-03-17T11:17:58.619Z,1002.37
2018-03-17T11:18:58.605Z,1002.31
2018-03-17T11:19:58.592Z,1002.34
2018-03-17T11:20:58.574Z,1002.29
2018-03-17T11:21:58.567Z,1002.40
2018-03-17T11:22:58.597Z,1002.23
2018-03-17T11:23:58.531Z,1002.27
2018-03-17T11:24:58.515Z,1002.33
2018-03-17T11:25:58.499Z,1002.29
2018-03-17T11:26:58.491Z,1002.32
2018-03-17T11:27:58.471Z,1002.31
2018-03-17T11:28:58.459Z,1002.28
2018-03-17T11:29:58.444Z,1002.08
2018-03-17T11:30:58.425Z,1002.33
2018-03-17T11:31:58.412Z,1002.33
2018-03-17T11:32:58.399Z,1002.30
2018-03-17T11:33:58.381Z,1002.31
2018-03-17T11:34:58.367Z,1002.37
2018-03-17T11:35:58.351Z,1002.28
2018-03-17T11:36:58.392Z,1002.33
2018-03-17T11:37:58.321Z,1002.17
2018-03-17T11:38:58.310Z,1002.28
2018-03-17T11:39:58.297Z,1002.24
2018-03-17T11:40:58.278Z,1002.33
2018-03-17T11:41:58.263Z,1002.21
2018-03-17T11:42:58.263Z,1002.19
2018-03-17T11:43:58.235Z,1002.14
2018-03-17T11:44:58.223Z,1002.16
2018-03-17T11:45:58.205Z,1002.18
2018-03-17T11:46:58.191Z,1002.22
2018-03-17T11:47:58.205Z,1002.04
2018-03-17T11:48:58.160Z,1001.97
2018-03-17T11:49:58.148Z,1002.12
2018-03-17T11:50:58.135Z,1002.26
2018-03-17T11:51:58.122Z,1002.07
2018-03-17T11:52:58.106Z,1002.16
2018-03-17T11:53:58.086Z,1002.16
2018-03-17T11:54:58.073Z,1001.86
2018-03-17T11:55:58.058Z,1002.19
2018-03-17T11:56:58.045Z,1002.00
2018-03-17T11:57:58.028Z,1002.20
2018-03-17T11:58:58.015Z,1002.05
2018-03-17T11:59:58.005Z,1002.09
2018-03-17T12:00:57.984Z,1002.04
2018-03-17T12:01:57.973Z,1002.06
2018-03-17T12:02:57.957Z,1002.14
2018-03-17T12:03:57.942Z,1002.05
2018-03-17T12:04:58.078Z,1002.06